sensor_id;sensor_type;location;lat;lon;timestamp;temperature;humidity
22364;DHT22;11349;53.412;-1.328;2024-01-11T00:00:30;4.60;99.90
22364;DHT22;11349;53.412;-1.328;2024-01-11T00:02:56;4.60;99.90
22364;DHT22;11349;53.412;-1.328;2024-01-11T00:05:22;4.60;99.90
22364;DHT22;11349;53.412;-1.328;2024-01-11T00:07:48;4.60;99.90
22364;DHT22;11349;53.412;-1.328;2024-01-11T00:10:15;4.60;99.90
22364;DHT22;11349;53.412;-1.328;2024-01-11T00:12:41;4.60;99.90
22364;DHT22;11349;53.412;-1.328;2024-01-11T00:15:07;4.60;99.90
22364;DHT22;11349;53.412;-1.328;2024-01-11T00:17:33;4.60;99.90
22364;DHT22;11349;53.412;-1.328;2024-01-11T00:19:59;4.60;99.90
22364;DHT22;11349;53.412;-1.328;2024-01-11T00:22:25;4.60;99.90
22364;DHT22;11349;53.412;-1.328;2024-01-11T00:24:50;4.60;99.90
22364;DHT22;11349;53.412;-1.328;2024-01-11T00:27:16;4.60;99.90
22364;DHT22;11349;53.412;-1.328;2024-01-11T00:29:42;4.60;99.90
22364;DHT22;11349;53.412;-1.328;2024-01-11T00:32:08;4.70;99.90
22364;DHT22;11349;53.412;-1.328;2024-01-11T00:34:33;4.60;99.90
22364;DHT22;11349;53.412;-1.328;2024-01-11T00:37:01;4.60;99.90
22364;DHT22;11349;53.412;-1.328;2024-01-11T00:39:27;4.50;99.90
22364;DHT22;11349;53.412;-1.328;2024-01-11T00:41:52;4.60;99.90
22364;DHT22;11349;53.412;-1.328;2024-01-11T00:44:18;4.60;99.90
22364;DHT22;11349;53.412;-1.328;2024-01-11T00:46:44;4.60;99.90
22364;DHT22;11349;53.412;-1.328;2024-01-11T00:49:09;4.70;99.90
22364;DHT22;11349;53.412;-1.328;2024-01-11T00:51:35;4.70;99.90
22364;DHT22;11349;53.412;-1.328;2024-01-11T00:54:01;4.60;99.90
22364;DHT22;11349;53.412;-1.328;2024-01-11T00:56:27;4.60;99.90
22364;DHT22;11349;53.412;-1.328;2024-01-11T00:58:53;4.60;99.90
22364;DHT22;11349;53.412;-1.328;2024-01-11T01:01:18;4.60;99.90
22364;DHT22;11349;53.412;-1.328;2024-01-11T01:03:44;4.60;99.90
22364;DHT22;11349;53.412;-1.328;2024-01-11T01:06:10;4.70;99.90
22364;DHT22;11349;53.412;-1.328;2024-01-11T01:08:35;4.70;99.90
22364;DHT22;11349;53.412;-1.328;2024-01-11T01:11:01;4.60;99.90
22364;DHT22;11349;53.412;-1.328;2024-01-11T01:13:27;4.70;99.90
22364;DHT22;11349;53.412;-1.328;2024-01-11T01:15:53;4.70;99.90
22364;DHT22;11349;53.412;-1.328;2024-01-11T01:18:18;4.70;99.90
22364;DHT22;11349;53.412;-1.328;2024-01-11T01:20:44;4.70;99.90
22364;DHT22;11349;53.412;-1.328;2024-01-11T01:23:10;4.70;99.90
22364;DHT22;11349;53.412;-1.328;2024-01-11T01:25:35;4.60;99.90
22364;DHT22;11349;53.412;-1.328;2024-01-11T01:28:01;4.70;99.90
22364;DHT22;11349;53.412;-1.328;2024-01-11T01:30:27;4.70;99.90
22364;DHT22;11349;53.412;-1.328;2024-01-11T01:32:53;4.60;99.90
22364;DHT22;11349;53.412;-1.328;2024-01-11T01:35:19;4.70;99.90
22364;DHT22;11349;53.412;-1.328;2024-01-11T01:37:45;4.60;99.90
22364;DHT22;11349;53.412;-1.328;2024-01-11T01:40:12;4.70;99.90
22364;DHT22;11349;53.412;-1.328;2024-01-11T01:42:43;4.70;99.90
22364;DHT22;11349;53.412;-1.328;2024-01-11T01:45:09;4.70;99.90
22364;DHT22;11349;53.412;-1.328;2024-01-11T01:47:35;4.70;99.90
22364;DHT22;11349;53.412;-1.328;2024-01-11T01:50:02;4.70;99.90
22364;DHT22;11349;53.412;-1.328;2024-01-11T01:52:28;4.70;99.90
22364;DHT22;11349;53.412;-1.328;2024-01-11T01:54:55;4.70;99.90
22364;DHT22;11349;53.412;-1.328;2024-01-11T01:57:23;4.70;99.90
22364;DHT22;11349;53.412;-1.328;2024-01-11T01:59:52;4.70;99.90
22364;DHT22;11349;53.412;-1.328;2024-01-11T02:02:20;4.70;99.90
22364;DHT22;11349;53.412;-1.328;2024-01-11T02:04:46;4.70;99.90
22364;DHT22;11349;53.412;-1.328;2024-01-11T02:07:12;4.70;99.90
22364;DHT22;11349;53.412;-1.328;2024-01-11T02:09:42;4.70;99.90
22364;DHT22;11349;53.412;-1.328;2024-01-11T02:12:08;4.70;99.90
22364;DHT22;11349;53.412;-1.328;2024-01-11T02:14:37;4.70;99.90
22364;DHT22;11349;53.412;-1.328;2024-01-11T02:17:03;4.70;99.90
22364;DHT22;11349;53.412;-1.328;2024-01-11T02:19:29;4.80;99.90
22364;DHT22;11349;53.412;-1.328;2024-01-11T02:21:56;4.70;99.90
22364;DHT22;11349;53.412;-1.328;2024-01-11T02:24:26;4.80;99.90
22364;DHT22;11349;53.412;-1.328;2024-01-11T02:27:02;4.70;99.90
22364;DHT22;11349;53.412;-1.328;2024-01-11T02:29:29;4.70;99.90
22364;DHT22;11349;53.412;-1.328;2024-01-11T02:31:56;4.70;99.90
22364;DHT22;11349;53.412;-1.328;2024-01-11T02:34:26;4.70;99.90
22364;DHT22;11349;53.412;-1.328;2024-01-11T02:36:54;4.70;99.90
22364;DHT22;11349;53.412;-1.328;2024-01-11T02:39:20;4.70;99.90
22364;DHT22;11349;53.412;-1.328;2024-01-11T02:41:49;4.70;99.90
22364;DHT22;11349;53.412;-1.328;2024-01-11T02:44:15;4.60;99.90
22364;DHT22;11349;53.412;-1.328;2024-01-11T02:46:41;4.70;99.90
22364;DHT22;11349;53.412;-1.328;2024-01-11T02:49:06;4.70;99.90
22364;DHT22;11349;53.412;-1.328;2024-01-11T02:51:32;4.70;99.90
22364;DHT22;11349;53.412;-1.328;2024-01-11T02:53:58;4.70;99.90
22364;DHT22;11349;53.412;-1.328;2024-01-11T02:56:24;4.70;99.90
22364;DHT22;11349;53.412;-1.328;2024-01-11T02:58:50;4.70;99.90
22364;DHT22;11349;53.412;-1.328;2024-01-11T03:01:15;4.70;99.90
22364;DHT22;11349;53.412;-1.328;2024-01-11T03:03:41;4.60;99.90
22364;DHT22;11349;53.412;-1.328;2024-01-11T03:06:07;4.60;99.90
22364;DHT22;11349;53.412;-1.328;2024-01-11T03:08:33;4.70;99.90
22364;DHT22;11349;53.412;-1.328;2024-01-11T03:10:59;4.60;99.90
22364;DHT22;11349;53.412;-1.328;2024-01-11T03:13:24;4.60;99.90
22364;DHT22;11349;53.412;-1.328;2024-01-11T03:15:50;4.60;99.90
22364;DHT22;11349;53.412;-1.328;2024-01-11T03:18:16;4.70;99.90
22364;DHT22;11349;53.412;-1.328;2024-01-11T03:20:41;4.70;99.90
22364;DHT22;11349;53.412;-1.328;2024-01-11T03:23:07;4.70;99.90
22364;DHT22;11349;53.412;-1.328;2024-01-11T03:25:33;4.70;99.90
22364;DHT22;11349;53.412;-1.328;2024-01-11T03:27:58;4.70;99.90
22364;DHT22;11349;53.412;-1.328;2024-01-11T03:30:25;4.70;99.90
22364;DHT22;11349;53.412;-1.328;2024-01-11T03:32:51;4.70;99.90
22364;DHT22;11349;53.412;-1.328;2024-01-11T03:35:18;4.70;99.90
22364;DHT22;11349;53.412;-1.328;2024-01-11T03:37:44;4.70;99.90
22364;DHT22;11349;53.412;-1.328;2024-01-11T03:40:10;4.70;99.90
22364;DHT22;11349;53.412;-1.328;2024-01-11T03:42:36;4.70;99.90
22364;DHT22;11349;53.412;-1.328;2024-01-11T03:45:02;4.70;99.90
22364;DHT22;11349;53.412;-1.328;2024-01-11T03:47:28;4.70;99.90
22364;DHT22;11349;53.412;-1.328;2024-01-11T03:49:54;4.70;99.90
22364;DHT22;11349;53.412;-1.328;2024-01-11T03:52:20;4.50;99.90
22364;DHT22;11349;53.412;-1.328;2024-01-11T03:54:46;4.60;99.90
22364;DHT22;11349;53.412;-1.328;2024-01-11T03:57:11;4.60;99.90
22364;DHT22;11349;53.412;-1.328;2024-01-11T03:59:37;4.70;99.90
22364;DHT22;11349;53.412;-1.328;2024-01-11T04:02:03;4.70;99.90
22364;DHT22;11349;53.412;-1.328;2024-01-11T04:04:29;4.60;99.90
22364;DHT22;11349;53.412;-1.328;2024-01-11T04:06:54;4.80;99.90
22364;DHT22;11349;53.412;-1.328;2024-01-11T04:09:20;4.70;99.90
22364;DHT22;11349;53.412;-1.328;2024-01-11T04:11:46;4.70;99.90
22364;DHT22;11349;53.412;-1.328;2024-01-11T04:14:12;4.80;99.90
22364;DHT22;11349;53.412;-1.328;2024-01-11T04:16:42;4.80;99.90
22364;DHT22;11349;53.412;-1.328;2024-01-11T04:19:08;4.70;99.90
22364;DHT22;11349;53.412;-1.328;2024-01-11T04:21:34;4.80;99.90
22364;DHT22;11349;53.412;-1.328;2024-01-11T04:23:59;4.70;99.90
22364;DHT22;11349;53.412;-1.328;2024-01-11T04:26:25;4.70;99.90
22364;DHT22;11349;53.412;-1.328;2024-01-11T04:28:52;4.70;99.90
22364;DHT22;11349;53.412;-1.328;2024-01-11T04:31:18;4.70;99.90
22364;DHT22;11349;53.412;-1.328;2024-01-11T04:33:45;4.70;99.90
22364;DHT22;11349;53.412;-1.328;2024-01-11T04:36:11;4.70;99.90
22364;DHT22;11349;53.412;-1.328;2024-01-11T04:38:38;4.70;99.90
22364;DHT22;11349;53.412;-1.328;2024-01-11T04:41:14;4.70;99.90
22364;DHT22;11349;53.412;-1.328;2024-01-11T04:43:44;4.70;99.90
22364;DHT22;11349;53.412;-1.328;2024-01-11T04:46:27;4.70;99.90
22364;DHT22;11349;53.412;-1.328;2024-01-11T04:48:53;4.70;99.90
22364;DHT22;11349;53.412;-1.328;2024-01-11T04:51:19;4.60;99.90
22364;DHT22;11349;53.412;-1.328;2024-01-11T04:53:46;4.70;99.90
22364;DHT22;11349;53.412;-1.328;2024-01-11T04:56:14;4.60;99.90
22364;DHT22;11349;53.412;-1.328;2024-01-11T04:58:41;4.60;99.90
22364;DHT22;11349;53.412;-1.328;2024-01-11T05:01:11;4.60;99.90
22364;DHT22;11349;53.412;-1.328;2024-01-11T05:03:37;4.70;99.90
22364;DHT22;11349;53.412;-1.328;2024-01-11T05:06:03;4.70;99.90
22364;DHT22;11349;53.412;-1.328;2024-01-11T05:08:29;4.60;99.90
22364;DHT22;11349;53.412;-1.328;2024-01-11T05:10:55;4.70;99.90
22364;DHT22;11349;53.412;-1.328;2024-01-11T05:13:20;4.70;99.90
22364;DHT22;11349;53.412;-1.328;2024-01-11T05:15:46;4.70;99.90
22364;DHT22;11349;53.412;-1.328;2024-01-11T05:18:12;4.70;99.90
22364;DHT22;11349;53.412;-1.328;2024-01-11T05:20:39;4.70;99.90
22364;DHT22;11349;53.412;-1.328;2024-01-11T05:23:05;4.70;99.90
22364;DHT22;11349;53.412;-1.328;2024-01-11T05:25:31;4.70;99.90
22364;DHT22;11349;53.412;-1.328;2024-01-11T05:28:01;4.70;99.90
22364;DHT22;11349;53.412;-1.328;2024-01-11T05:30:27;4.70;99.90
22364;DHT22;11349;53.412;-1.328;2024-01-11T05:32:54;4.70;99.90
22364;DHT22;11349;53.412;-1.328;2024-01-11T05:35:20;4.70;99.90
22364;DHT22;11349;53.412;-1.328;2024-01-11T05:37:45;4.70;99.90
22364;DHT22;11349;53.412;-1.328;2024-01-11T05:40:11;4.70;99.90
22364;DHT22;11349;53.412;-1.328;2024-01-11T05:42:37;4.70;99.90
22364;DHT22;11349;53.412;-1.328;2024-01-11T05:45:05;4.70;99.90
22364;DHT22;11349;53.412;-1.328;2024-01-11T05:47:30;4.80;99.90
22364;DHT22;11349;53.412;-1.328;2024-01-11T05:49:56;4.70;99.90
22364;DHT22;11349;53.412;-1.328;2024-01-11T05:52:22;4.70;99.90
22364;DHT22;11349;53.412;-1.328;2024-01-11T05:54:48;4.70;99.90
22364;DHT22;11349;53.412;-1.328;2024-01-11T05:57:13;4.70;99.90
22364;DHT22;11349;53.412;-1.328;2024-01-11T05:59:44;4.70;99.90
22364;DHT22;11349;53.412;-1.328;2024-01-11T06:02:11;4.70;99.90
22364;DHT22;11349;53.412;-1.328;2024-01-11T06:04:36;4.70;99.90
22364;DHT22;11349;53.412;-1.328;2024-01-11T06:07:02;4.70;99.90
22364;DHT22;11349;53.412;-1.328;2024-01-11T06:09:28;4.70;99.90
22364;DHT22;11349;53.412;-1.328;2024-01-11T06:11:53;4.70;99.90
22364;DHT22;11349;53.412;-1.328;2024-01-11T06:14:19;4.70;99.90
22364;DHT22;11349;53.412;-1.328;2024-01-11T06:16:45;4.70;99.90
22364;DHT22;11349;53.412;-1.328;2024-01-11T06:19:10;4.70;99.90
22364;DHT22;11349;53.412;-1.328;2024-01-11T06:21:36;4.80;99.90
22364;DHT22;11349;53.412;-1.328;2024-01-11T06:24:02;4.80;99.90
22364;DHT22;11349;53.412;-1.328;2024-01-11T06:26:29;4.80;99.90
22364;DHT22;11349;53.412;-1.328;2024-01-11T06:28:55;4.80;99.90
22364;DHT22;11349;53.412;-1.328;2024-01-11T06:31:21;4.80;99.90
22364;DHT22;11349;53.412;-1.328;2024-01-11T06:33:47;4.80;99.90
22364;DHT22;11349;53.412;-1.328;2024-01-11T06:36:12;4.80;99.90
22364;DHT22;11349;53.412;-1.328;2024-01-11T06:38:38;4.80;99.90
22364;DHT22;11349;53.412;-1.328;2024-01-11T06:41:04;4.80;99.90
22364;DHT22;11349;53.412;-1.328;2024-01-11T06:43:29;4.80;99.90
22364;DHT22;11349;53.412;-1.328;2024-01-11T06:45:55;4.80;99.90
22364;DHT22;11349;53.412;-1.328;2024-01-11T06:48:21;4.80;99.90
22364;DHT22;11349;53.412;-1.328;2024-01-11T06:50:47;4.80;99.90
22364;DHT22;11349;53.412;-1.328;2024-01-11T06:53:12;4.90;99.90
22364;DHT22;11349;53.412;-1.328;2024-01-11T06:55:38;4.80;99.90
22364;DHT22;11349;53.412;-1.328;2024-01-11T06:58:06;4.90;99.90
22364;DHT22;11349;53.412;-1.328;2024-01-11T07:00:32;4.80;99.90
22364;DHT22;11349;53.412;-1.328;2024-01-11T07:02:57;4.90;99.90
22364;DHT22;11349;53.412;-1.328;2024-01-11T07:05:23;4.80;99.90
22364;DHT22;11349;53.412;-1.328;2024-01-11T07:07:49;4.90;99.90
22364;DHT22;11349;53.412;-1.328;2024-01-11T07:10:15;4.90;99.90
22364;DHT22;11349;53.412;-1.328;2024-01-11T07:12:41;4.80;99.90
22364;DHT22;11349;53.412;-1.328;2024-01-11T07:15:08;4.90;99.90
22364;DHT22;11349;53.412;-1.328;2024-01-11T07:17:34;4.80;99.90
22364;DHT22;11349;53.412;-1.328;2024-01-11T07:20:00;4.80;99.90
22364;DHT22;11349;53.412;-1.328;2024-01-11T07:22:26;4.80;99.90
22364;DHT22;11349;53.412;-1.328;2024-01-11T07:24:52;4.80;99.90
22364;DHT22;11349;53.412;-1.328;2024-01-11T07:27:17;4.80;99.90
22364;DHT22;11349;53.412;-1.328;2024-01-11T07:29:43;4.90;99.90
22364;DHT22;11349;53.412;-1.328;2024-01-11T07:32:09;4.80;99.90
22364;DHT22;11349;53.412;-1.328;2024-01-11T07:34:35;4.90;99.90
22364;DHT22;11349;53.412;-1.328;2024-01-11T07:37:01;4.80;99.90
22364;DHT22;11349;53.412;-1.328;2024-01-11T07:39:27;4.90;99.90
22364;DHT22;11349;53.412;-1.328;2024-01-11T07:41:53;4.90;99.90
22364;DHT22;11349;53.412;-1.328;2024-01-11T07:44:19;4.90;99.90
22364;DHT22;11349;53.412;-1.328;2024-01-11T07:46:45;4.90;99.90
22364;DHT22;11349;53.412;-1.328;2024-01-11T07:49:11;4.90;99.90
22364;DHT22;11349;53.412;-1.328;2024-01-11T07:51:37;4.90;99.90
22364;DHT22;11349;53.412;-1.328;2024-01-11T07:54:04;4.90;99.90
22364;DHT22;11349;53.412;-1.328;2024-01-11T07:56:30;4.90;99.90
22364;DHT22;11349;53.412;-1.328;2024-01-11T07:58:56;4.90;99.90
22364;DHT22;11349;53.412;-1.328;2024-01-11T08:01:22;4.80;99.90
22364;DHT22;11349;53.412;-1.328;2024-01-11T08:03:47;4.80;99.90
22364;DHT22;11349;53.412;-1.328;2024-01-11T08:06:13;4.90;99.90
22364;DHT22;11349;53.412;-1.328;2024-01-11T08:08:39;4.80;99.90
22364;DHT22;11349;53.412;-1.328;2024-01-11T08:11:07;4.80;99.90
22364;DHT22;11349;53.412;-1.328;2024-01-11T08:13:32;4.90;99.90
22364;DHT22;11349;53.412;-1.328;2024-01-11T08:16:00;4.90;99.90
22364;DHT22;11349;53.412;-1.328;2024-01-11T08:18:26;4.90;99.90
22364;DHT22;11349;53.412;-1.328;2024-01-11T08:20:52;4.90;99.90
22364;DHT22;11349;53.412;-1.328;2024-01-11T08:23:18;4.90;99.90
22364;DHT22;11349;53.412;-1.328;2024-01-11T08:25:43;4.90;99.90
22364;DHT22;11349;53.412;-1.328;2024-01-11T08:28:09;4.90;99.90
22364;DHT22;11349;53.412;-1.328;2024-01-11T08:30:35;4.90;99.90
22364;DHT22;11349;53.412;-1.328;2024-01-11T08:33:02;4.90;99.90
22364;DHT22;11349;53.412;-1.328;2024-01-11T08:35:29;4.90;99.90
22364;DHT22;11349;53.412;-1.328;2024-01-11T08:37:57;4.90;99.90
22364;DHT22;11349;53.412;-1.328;2024-01-11T08:40:23;5.00;99.90
22364;DHT22;11349;53.412;-1.328;2024-01-11T08:42:49;5.00;99.90
22364;DHT22;11349;53.412;-1.328;2024-01-11T08:45:14;4.90;99.90
22364;DHT22;11349;53.412;-1.328;2024-01-11T08:47:46;5.00;99.90
22364;DHT22;11349;53.412;-1.328;2024-01-11T08:50:15;5.00;99.90
22364;DHT22;11349;53.412;-1.328;2024-01-11T08:52:42;5.00;99.90
22364;DHT22;11349;53.412;-1.328;2024-01-11T08:55:08;5.00;99.90
22364;DHT22;11349;53.412;-1.328;2024-01-11T08:57:34;5.00;99.90
22364;DHT22;11349;53.412;-1.328;2024-01-11T09:00:04;5.00;99.90
22364;DHT22;11349;53.412;-1.328;2024-01-11T09:02:31;5.20;99.90
22364;DHT22;11349;53.412;-1.328;2024-01-11T09:04:57;5.30;99.90
22364;DHT22;11349;53.412;-1.328;2024-01-11T09:07:23;5.20;99.90
22364;DHT22;11349;53.412;-1.328;2024-01-11T09:09:49;5.20;99.90
22364;DHT22;11349;53.412;-1.328;2024-01-11T09:12:14;5.20;99.90
22364;DHT22;11349;53.412;-1.328;2024-01-11T09:14:40;5.20;99.90
22364;DHT22;11349;53.412;-1.328;2024-01-11T09:17:06;5.20;99.90
22364;DHT22;11349;53.412;-1.328;2024-01-11T09:19:32;5.30;99.90
22364;DHT22;11349;53.412;-1.328;2024-01-11T09:21:59;5.30;99.90
22364;DHT22;11349;53.412;-1.328;2024-01-11T09:24:25;5.20;99.90
22364;DHT22;11349;53.412;-1.328;2024-01-11T09:26:51;5.30;99.90
22364;DHT22;11349;53.412;-1.328;2024-01-11T09:29:16;5.40;99.90
22364;DHT22;11349;53.412;-1.328;2024-01-11T09:31:42;5.40;99.90
22364;DHT22;11349;53.412;-1.328;2024-01-11T09:34:08;5.40;99.90
22364;DHT22;11349;53.412;-1.328;2024-01-11T09:36:34;5.50;99.90
22364;DHT22;11349;53.412;-1.328;2024-01-11T09:39:00;5.40;99.90
22364;DHT22;11349;53.412;-1.328;2024-01-11T09:41:26;5.50;99.90
22364;DHT22;11349;53.412;-1.328;2024-01-11T09:43:54;5.50;99.90
22364;DHT22;11349;53.412;-1.328;2024-01-11T09:46:23;5.40;99.90
22364;DHT22;11349;53.412;-1.328;2024-01-11T09:48:50;5.50;99.90
22364;DHT22;11349;53.412;-1.328;2024-01-11T09:51:17;5.50;99.90
22364;DHT22;11349;53.412;-1.328;2024-01-11T09:53:43;5.50;99.90
22364;DHT22;11349;53.412;-1.328;2024-01-11T09:56:09;5.40;99.90
22364;DHT22;11349;53.412;-1.328;2024-01-11T09:58:36;5.50;99.90
22364;DHT22;11349;53.412;-1.328;2024-01-11T10:01:02;5.50;99.90
22364;DHT22;11349;53.412;-1.328;2024-01-11T10:03:28;5.60;99.90
22364;DHT22;11349;53.412;-1.328;2024-01-11T10:05:57;5.50;99.90
22364;DHT22;11349;53.412;-1.328;2024-01-11T10:08:24;5.60;99.90
22364;DHT22;11349;53.412;-1.328;2024-01-11T10:10:50;5.70;99.90
22364;DHT22;11349;53.412;-1.328;2024-01-11T10:13:16;5.70;99.90
22364;DHT22;11349;53.412;-1.328;2024-01-11T10:15:43;5.60;99.90
22364;DHT22;11349;53.412;-1.328;2024-01-11T10:18:09;5.60;99.90
22364;DHT22;11349;53.412;-1.328;2024-01-11T10:20:35;5.60;99.90
22364;DHT22;11349;53.412;-1.328;2024-01-11T10:23:02;5.60;99.90
22364;DHT22;11349;53.412;-1.328;2024-01-11T10:25:31;5.70;99.90
22364;DHT22;11349;53.412;-1.328;2024-01-11T10:27:56;5.70;99.90
22364;DHT22;11349;53.412;-1.328;2024-01-11T10:30:23;5.70;99.90
22364;DHT22;11349;53.412;-1.328;2024-01-11T10:32:51;5.70;99.90
22364;DHT22;11349;53.412;-1.328;2024-01-11T10:35:16;5.70;99.90
22364;DHT22;11349;53.412;-1.328;2024-01-11T10:37:44;5.70;99.90
22364;DHT22;11349;53.412;-1.328;2024-01-11T10:40:10;5.80;99.90
22364;DHT22;11349;53.412;-1.328;2024-01-11T10:42:43;5.80;99.90
22364;DHT22;11349;53.412;-1.328;2024-01-11T10:45:19;5.70;99.90
22364;DHT22;11349;53.412;-1.328;2024-01-11T10:47:53;5.80;99.90
22364;DHT22;11349;53.412;-1.328;2024-01-11T10:50:19;5.80;99.90
22364;DHT22;11349;53.412;-1.328;2024-01-11T10:52:56;5.70;99.90
22364;DHT22;11349;53.412;-1.328;2024-01-11T10:55:30;5.80;99.90
22364;DHT22;11349;53.412;-1.328;2024-01-11T10:57:58;5.80;99.90
22364;DHT22;11349;53.412;-1.328;2024-01-11T11:00:26;5.80;99.90
22364;DHT22;11349;53.412;-1.328;2024-01-11T11:02:55;5.80;99.90
22364;DHT22;11349;53.412;-1.328;2024-01-11T11:05:21;5.80;99.90
22364;DHT22;11349;53.412;-1.328;2024-01-11T11:07:51;5.80;99.90
22364;DHT22;11349;53.412;-1.328;2024-01-11T11:10:19;5.80;99.90
22364;DHT22;11349;53.412;-1.328;2024-01-11T11:12:45;5.80;99.90
22364;DHT22;11349;53.412;-1.328;2024-01-11T11:15:14;5.80;99.90
22364;DHT22;11349;53.412;-1.328;2024-01-11T11:17:41;5.90;99.90
22364;DHT22;11349;53.412;-1.328;2024-01-11T11:20:08;5.90;99.90
22364;DHT22;11349;53.412;-1.328;2024-01-11T11:22:34;5.90;99.90
22364;DHT22;11349;53.412;-1.328;2024-01-11T11:25:09;5.90;99.90
22364;DHT22;11349;53.412;-1.328;2024-01-11T11:27:36;5.90;99.90
22364;DHT22;11349;53.412;-1.328;2024-01-11T11:30:03;5.90;99.90
22364;DHT22;11349;53.412;-1.328;2024-01-11T11:32:37;5.90;99.90
22364;DHT22;11349;53.412;-1.328;2024-01-11T11:35:06;6.00;99.90
22364;DHT22;11349;53.412;-1.328;2024-01-11T11:37:35;6.00;99.90
22364;DHT22;11349;53.412;-1.328;2024-01-11T11:40:02;6.00;99.90
22364;DHT22;11349;53.412;-1.328;2024-01-11T11:42:30;6.10;99.90
22364;DHT22;11349;53.412;-1.328;2024-01-11T11:44:56;6.00;99.90
22364;DHT22;11349;53.412;-1.328;2024-01-11T11:47:23;6.00;99.90
22364;DHT22;11349;53.412;-1.328;2024-01-11T11:50:09;6.00;99.90
22364;DHT22;11349;53.412;-1.328;2024-01-11T11:52:40;6.10;99.90
22364;DHT22;11349;53.412;-1.328;2024-01-11T11:55:09;6.10;99.90
22364;DHT22;11349;53.412;-1.328;2024-01-11T11:57:37;6.00;99.90
22364;DHT22;11349;53.412;-1.328;2024-01-11T12:00:04;6.10;99.90
22364;DHT22;11349;53.412;-1.328;2024-01-11T12:02:33;6.10;99.90
22364;DHT22;11349;53.412;-1.328;2024-01-11T12:05:01;6.10;99.90
22364;DHT22;11349;53.412;-1.328;2024-01-11T12:07:29;6.10;99.90
22364;DHT22;11349;53.412;-1.328;2024-01-11T12:09:55;6.10;99.90
22364;DHT22;11349;53.412;-1.328;2024-01-11T12:12:21;6.20;99.90
22364;DHT22;11349;53.412;-1.328;2024-01-11T12:14:47;6.10;99.90
22364;DHT22;11349;53.412;-1.328;2024-01-11T12:17:15;6.20;99.90
22364;DHT22;11349;53.412;-1.328;2024-01-11T12:19:41;6.20;99.90
22364;DHT22;11349;53.412;-1.328;2024-01-11T12:22:06;6.20;99.90
22364;DHT22;11349;53.412;-1.328;2024-01-11T12:24:32;6.30;99.90
22364;DHT22;11349;53.412;-1.328;2024-01-11T12:27:00;6.10;99.90
22364;DHT22;11349;53.412;-1.328;2024-01-11T12:29:29;6.10;99.90
22364;DHT22;11349;53.412;-1.328;2024-01-11T12:31:59;6.30;99.90
22364;DHT22;11349;53.412;-1.328;2024-01-11T12:34:25;6.20;99.90
22364;DHT22;11349;53.412;-1.328;2024-01-11T12:36:52;6.30;99.90
22364;DHT22;11349;53.412;-1.328;2024-01-11T12:39:19;6.20;99.90
22364;DHT22;11349;53.412;-1.328;2024-01-11T12:41:50;6.20;99.90
22364;DHT22;11349;53.412;-1.328;2024-01-11T12:44:20;6.20;99.90
22364;DHT22;11349;53.412;-1.328;2024-01-11T12:46:48;6.20;99.90
22364;DHT22;11349;53.412;-1.328;2024-01-11T12:49:15;6.20;99.90
22364;DHT22;11349;53.412;-1.328;2024-01-11T12:51:41;6.30;99.90
22364;DHT22;11349;53.412;-1.328;2024-01-11T12:54:12;6.40;99.90
22364;DHT22;11349;53.412;-1.328;2024-01-11T12:56:41;6.30;99.90
22364;DHT22;11349;53.412;-1.328;2024-01-11T12:59:08;6.30;99.90
22364;DHT22;11349;53.412;-1.328;2024-01-11T13:01:36;6.40;99.90
22364;DHT22;11349;53.412;-1.328;2024-01-11T13:04:02;6.30;99.90
22364;DHT22;11349;53.412;-1.328;2024-01-11T13:06:29;6.30;99.90
22364;DHT22;11349;53.412;-1.328;2024-01-11T13:08:56;6.30;99.90
22364;DHT22;11349;53.412;-1.328;2024-01-11T13:11:22;6.30;99.90
22364;DHT22;11349;53.412;-1.328;2024-01-11T13:13:50;6.30;99.90
22364;DHT22;11349;53.412;-1.328;2024-01-11T13:16:17;6.40;99.90
22364;DHT22;11349;53.412;-1.328;2024-01-11T13:18:44;6.40;99.90
22364;DHT22;11349;53.412;-1.328;2024-01-11T13:21:10;6.40;99.90
22364;DHT22;11349;53.412;-1.328;2024-01-11T13:23:38;6.40;99.90
22364;DHT22;11349;53.412;-1.328;2024-01-11T13:26:05;6.40;99.90
22364;DHT22;11349;53.412;-1.328;2024-01-11T13:28:32;6.40;99.90
22364;DHT22;11349;53.412;-1.328;2024-01-11T13:30:59;6.40;99.90
22364;DHT22;11349;53.412;-1.328;2024-01-11T13:33:25;6.40;99.90
22364;DHT22;11349;53.412;-1.328;2024-01-11T13:35:51;6.40;99.90
22364;DHT22;11349;53.412;-1.328;2024-01-11T13:38:18;6.40;99.90
22364;DHT22;11349;53.412;-1.328;2024-01-11T13:40:44;6.40;99.90
22364;DHT22;11349;53.412;-1.328;2024-01-11T13:43:10;6.40;99.90
22364;DHT22;11349;53.412;-1.328;2024-01-11T13:45:36;6.30;99.90
22364;DHT22;11349;53.412;-1.328;2024-01-11T13:48:02;6.30;99.90
22364;DHT22;11349;53.412;-1.328;2024-01-11T13:50:28;6.30;99.90
22364;DHT22;11349;53.412;-1.328;2024-01-11T13:52:54;6.30;99.90
22364;DHT22;11349;53.412;-1.328;2024-01-11T13:55:20;6.30;99.90
22364;DHT22;11349;53.412;-1.328;2024-01-11T13:57:47;6.40;99.90
22364;DHT22;11349;53.412;-1.328;2024-01-11T14:00:14;6.40;99.90
22364;DHT22;11349;53.412;-1.328;2024-01-11T14:02:40;6.40;99.90
22364;DHT22;11349;53.412;-1.328;2024-01-11T14:05:07;6.40;99.90
22364;DHT22;11349;53.412;-1.328;2024-01-11T14:07:37;6.40;99.90
22364;DHT22;11349;53.412;-1.328;2024-01-11T14:10:03;6.40;99.90
22364;DHT22;11349;53.412;-1.328;2024-01-11T14:12:29;6.40;99.90
22364;DHT22;11349;53.412;-1.328;2024-01-11T14:14:54;6.30;99.90
22364;DHT22;11349;53.412;-1.328;2024-01-11T14:17:20;6.40;99.90
22364;DHT22;11349;53.412;-1.328;2024-01-11T14:19:46;6.40;99.90
22364;DHT22;11349;53.412;-1.328;2024-01-11T14:22:12;6.40;99.90
22364;DHT22;11349;53.412;-1.328;2024-01-11T14:24:37;6.40;99.90
22364;DHT22;11349;53.412;-1.328;2024-01-11T14:27:03;6.50;99.90
22364;DHT22;11349;53.412;-1.328;2024-01-11T14:29:30;6.50;99.90
22364;DHT22;11349;53.412;-1.328;2024-01-11T14:31:55;6.50;99.90
22364;DHT22;11349;53.412;-1.328;2024-01-11T14:34:22;6.50;99.90
22364;DHT22;11349;53.412;-1.328;2024-01-11T14:36:48;6.50;99.90
22364;DHT22;11349;53.412;-1.328;2024-01-11T14:39:16;6.50;99.90
22364;DHT22;11349;53.412;-1.328;2024-01-11T14:41:42;6.60;99.90
22364;DHT22;11349;53.412;-1.328;2024-01-11T14:44:08;6.50;99.90
22364;DHT22;11349;53.412;-1.328;2024-01-11T14:46:35;6.50;99.90
22364;DHT22;11349;53.412;-1.328;2024-01-11T14:49:01;6.50;99.90
22364;DHT22;11349;53.412;-1.328;2024-01-11T14:51:27;6.50;99.90
22364;DHT22;11349;53.412;-1.328;2024-01-11T14:53:56;6.50;99.90
22364;DHT22;11349;53.412;-1.328;2024-01-11T14:56:22;6.60;99.90
22364;DHT22;11349;53.412;-1.328;2024-01-11T14:58:47;6.50;99.90
22364;DHT22;11349;53.412;-1.328;2024-01-11T15:01:13;6.50;99.90
22364;DHT22;11349;53.412;-1.328;2024-01-11T15:03:39;6.50;99.90
22364;DHT22;11349;53.412;-1.328;2024-01-11T15:06:05;6.50;99.90
22364;DHT22;11349;53.412;-1.328;2024-01-11T15:08:31;6.50;99.90
22364;DHT22;11349;53.412;-1.328;2024-01-11T15:10:57;6.60;99.90
22364;DHT22;11349;53.412;-1.328;2024-01-11T15:13:23;6.60;99.90
22364;DHT22;11349;53.412;-1.328;2024-01-11T15:15:48;6.50;99.90
22364;DHT22;11349;53.412;-1.328;2024-01-11T15:18:14;6.70;99.90
22364;DHT22;11349;53.412;-1.328;2024-01-11T15:20:40;6.50;99.90
22364;DHT22;11349;53.412;-1.328;2024-01-11T15:23:07;6.60;99.90
22364;DHT22;11349;53.412;-1.328;2024-01-11T15:25:33;6.60;99.90